Flight Track Log - Related Links

Times and Time Zones

All times are in EDT time to prevent confusion due to time zone crossing. See the JST627 flight status page for this flight to view local times or setup timezone preferences in your user account.

Time Position Orientation Groundspeed Altitude Reporting Facility
EDT Latitude Longitude Course Direction KTS MPH feet Rate Location/Type
Mon 07:54:32 AM -33.9690 151.1930 180° South 154 177 300  Level FlightAware ADS-B
Mon 07:54:57 AM -33.9860 151.2010 159° South 166 191 1,500 2,250 Climbing FlightAware ADS-B
Mon 07:55:12 AM -33.9930 151.2130 125° Southeast 186 214 1,800 933 Climbing FlightAware ADS-B
Mon 07:55:42 AM -34.0040 151.2420 115° Southeast 224 258 2,200 1,067 Climbing FlightAware ADS-B
Mon 07:55:57 AM -34.0170 151.2590 133° Southeast 256 295 2,600 2,364 Climbing FlightAware ADS-B
Mon 07:56:15 AM -34.0416 151.2814 133° Southeast 264 304 3,500 2,640 Climbing Aus ATC (RADAR)
Mon 07:56:22 AM -34.0430 151.2820 133° Southeast 277 319 3,700 3,405 Climbing FlightAware ADS-B
Mon 07:56:52 AM -34.0720 151.3090 142° Southeast 272 313 5,600 3,709 Climbing FlightAware ADS-B
Mon 07:57:17 AM -34.0990 151.3340 143° Southeast 278 320 7,100 3,382 Climbing FlightAware ADS-B
Mon 07:57:47 AM -34.1310 151.3650 141° Southeast 292 336 8,700 3,250 Climbing FlightAware ADS-B
Mon 07:58:05 AM -34.1568 151.3893 141° Southeast 301 346 9,700 2,600 Climbing Aus ATC (RADAR)
Mon 07:58:17 AM -34.1620 151.3910 141° Southeast 303 349 10,000 2,727 Climbing FlightAware ADS-B
Mon 07:58:27 AM -34.1800 151.3960 167° South 288 331 10,700 1,950 Climbing FlightAware ADS-B
Mon 07:58:57 AM -34.2190 151.3790 200° South 317 365 11,300 1,238 Climbing FlightAware ADS-B
Mon 07:59:30 AM -34.2544 151.3224 200° South 331 381 12,000 1,050 Climbing Aus ATC (RADAR)
Mon 07:59:37 AM -34.2550 151.3220 200° South 352 405 12,000 2,000 Level FlightAware ADS-B
Mon 08:00:15 AM -34.2995 151.2467 200° South 359 413 13,500 2,400 Climbing Aus ATC (RADAR)
Mon 08:00:22 AM -34.3010 151.2440 200° South 371 427 13,800 2,298 Climbing FlightAware ADS-B
Mon 08:01:02 AM -34.3450 151.1720 233° Southwest 383 441 15,300 2,095 Climbing FlightAware ADS-B
Mon 08:01:25 AM -34.3729 151.1266 233° Southwest 376 433 16,000 1,950 Climbing Aus ATC (RADAR)
Mon 08:01:42 AM -34.3840 151.1070 233° Southwest 387 445 16,600 2,571 Climbing FlightAware ADS-B
Mon 08:02:00 AM -34.4103 151.0647 233° Southwest 379 436 17,500 2,400 Climbing Aus ATC (RADAR)
Mon 08:02:27 AM -34.4350 151.0240 233° Southwest 392 451 18,400 2,040 Climbing FlightAware ADS-B
Mon 08:02:50 AM -34.4643 150.9747 233° Southwest 386 444 19,200 1,895 Climbing Aus ATC (RADAR)
Mon 08:03:05 AM -34.4808 150.9474 234° Southwest 389 448 19,600 1,765 Climbing Aus ATC (RADAR)
Mon 08:03:07 AM -34.4790 150.9510 234° Southwest 399 459 19,700 1,543 Climbing FlightAware ADS-B
Mon 08:03:40 AM -34.5199 150.8821 234° Southwest 401 461 20,500 1,600 Climbing Aus ATC (RADAR)
Mon 08:03:52 AM -34.5310 150.8640 234° Southwest 416 479 20,900 1,592 Climbing FlightAware ADS-B
Mon 08:04:29 AM -34.5767 150.7869 234° Southwest 409 471 21,800 1,500 Climbing Aus ATC (RADAR)
Mon 08:04:32 AM -34.5770 150.7860 234° Southwest 424 488 21,900 1,250 Climbing FlightAware ADS-B
Mon 08:05:17 AM -34.6280 150.7000 234° Southwest 435 501 22,800 1,341 Climbing FlightAware ADS-B
Mon 08:05:57 AM -34.6750 150.6210 234° Southwest 439 505 23,800 1,343 Climbing FlightAware ADS-B
Mon 08:06:24 AM -34.7122 150.5596 234° Southwest 429 494 24,300 1,200 Climbing Aus ATC (RADAR)
Mon 08:06:37 AM -34.7240 150.5400 234° Southwest 445 512 24,600 720 Climbing FlightAware ADS-B
Mon 08:07:14 AM -34.7730 150.4568 234° Southwest 443 510 24,900 667 Climbing Aus ATC (RADAR)
Mon 08:07:22 AM -34.7790 150.4480 234° Southwest 457 526 25,100 1,714 Climbing FlightAware ADS-B
Mon 08:08:03 AM -34.8260 150.3670 235° Southwest 447 514 26,300 1,579 Climbing FlightAware ADS-B
Mon 08:08:19 AM -34.8517 150.3235 235° Southwest 437 503 26,600 1,364 Climbing Aus ATC (RADAR)
Mon 08:08:47 AM -34.8820 150.2730 235° Southwest 448 516 27,300 1,588 Climbing FlightAware ADS-B
Mon 08:09:27 AM -34.9310 150.1890 235° Southwest 443 510 28,400 1,579 Climbing FlightAware ADS-B
Mon 08:09:44 AM -34.9536 150.1500 235° Southwest 433 498 28,800 1,200 Climbing Aus ATC (RADAR)
Mon 08:10:07 AM -34.9780 150.1080 235° Southwest 443 510 29,200 1,200 Climbing FlightAware ADS-B
Mon 08:10:29 AM -35.0071 150.0589 235° Southwest 433 498 29,700 1,650 Climbing Aus ATC (RADAR)
Mon 08:10:47 AM -35.0250 150.0280 235° Southwest 437 503 30,300 1,636 Climbing FlightAware ADS-B
Mon 08:11:24 AM -35.0710 149.9491 235° Southwest 423 487 31,200 1,467 Climbing Aus ATC (RADAR)
Mon 08:11:32 AM -35.0780 149.9380 235° Southwest 430 495 31,400 1,200 Climbing FlightAware ADS-B
Mon 08:12:09 AM -35.1230 149.8602 235° Southwest 422 486 32,100 1,200 Climbing Aus ATC (RADAR)
Mon 08:12:17 AM -35.1290 149.8500 235° Southwest 430 495 32,300 1,875 Climbing FlightAware ADS-B
Mon 08:12:57 AM -35.1750 149.7720 234° Southwest 418 481 33,600 1,607 Climbing FlightAware ADS-B
Mon 08:13:13 AM -35.1961 149.7340 234° Southwest 412 474 33,800 900 Climbing Aus ATC (RADAR)
Mon 08:13:37 AM -35.2190 149.6950 234° Southwest 422 486 34,200 1,217 Climbing FlightAware ADS-B
Mon 08:14:22 AM -35.2690 149.6080 235° Southwest 414 476 35,200 1,377 Climbing FlightAware ADS-B
Mon 08:14:38 AM -35.2904 149.5706 235° Southwest 404 465 35,600 1,355 Climbing Aus ATC (RADAR)
Mon 08:14:53 AM -35.3070 149.5422 234° Southwest 404 465 35,900 750 Climbing Aus ATC (RADAR)
Mon 08:15:02 AM -35.3140 149.5300 234° Southwest 410 472 35,900 171 Level FlightAware ADS-B
Mon 08:15:28 AM -35.3447 149.4762 234° Southwest 400 460 36,000 150 Climbing Aus ATC (RADAR)
Mon 08:15:42 AM -35.3580 149.4540 234° Southwest 405 466 36,000  Level FlightAware ADS-B
Mon 08:16:27 AM -35.4050 149.3710 235° Southwest 408 470 36,000  Level FlightAware ADS-B
Mon 08:16:48 AM -35.4311 149.3256 235° Southwest 403 464 36,000  Level Aus ATC (RADAR)
Mon 08:17:07 AM -35.4480 149.2960 235° Southwest 406 467 36,000  Level FlightAware ADS-B
Mon 08:17:23 AM -35.4690 149.2598 235° Southwest 401 461 36,000  Level Aus ATC (RADAR)
Mon 08:17:52 AM -35.4970 149.2110 235° Southwest 408 470 36,000  Level FlightAware ADS-B
Mon 08:18:18 AM -35.5286 149.1554 235° Southwest 405 466 36,000  Level Aus ATC (RADAR)
Mon 08:18:42 AM -35.5470 149.1220 235° Southwest 412 474 36,000  Level FlightAware ADS-B
Mon 08:19:03 AM -35.5775 149.0695 235° Southwest 406 467 36,000  Level Aus ATC (RADAR)
Mon 08:19:27 AM -35.6000 149.0310 235° Southwest 414 476 36,000  Level FlightAware ADS-B
Mon 08:19:53 AM -35.6318 148.9738 235° Southwest 406 467 36,000  Level Aus ATC (RADAR)
Mon 08:20:12 AM -35.6480 148.9450 235° Southwest 407 468 36,000  Level FlightAware ADS-B
Mon 08:20:38 AM -35.6804 148.8875 235° Southwest 406 467 36,000  Level Aus ATC (RADAR)
Mon 08:20:52 AM -35.6920 148.8680 235° Southwest 405 466 36,000  Level FlightAware ADS-B
Mon 08:21:33 AM -35.7395 148.7825 235° Southwest 403 464 36,000  Level Aus ATC (RADAR)
Mon 08:21:37 AM -35.7390 148.7850 235° Southwest 402 463 36,000  Level FlightAware ADS-B
Mon 08:22:17 AM -35.7820 148.7090 235° Southwest 401 461 36,000  Level FlightAware ADS-B
Mon 08:22:57 AM -35.8250 148.6310 236° Southwest 402 463 36,000  Level FlightAware ADS-B
Mon 08:23:22 AM -35.8569 148.5743 236° Southwest 401 461 36,000  Level Aus ATC (RADAR)
Mon 08:23:37 AM -35.8690 148.5540 236° Southwest 402 463 36,000  Level FlightAware ADS-B
Mon 08:23:52 AM -35.8889 148.5171 236° Southwest 401 461 36,000  Level Aus ATC (RADAR)
Mon 08:24:22 AM -35.9180 148.4670 236° Southwest 403 464 36,000  Level FlightAware ADS-B
Mon 08:24:42 AM -35.9425 148.4214 236° Southwest 403 464 36,000  Level Aus ATC (RADAR)
Mon 08:24:57 AM -35.9589 148.3929 235° Southwest 404 465 36,000  Level Aus ATC (RADAR)
Mon 08:25:07 AM -35.9650 148.3820 235° Southwest 406 467 36,000  Level FlightAware ADS-B
Mon 08:25:32 AM -35.9964 148.3256 235° Southwest 405 466 36,000  Level Aus ATC (RADAR)
Mon 08:25:47 AM -36.0090 148.3050 235° Southwest 408 470 36,000  Level FlightAware ADS-B
Mon 08:26:27 AM -36.0530 148.2270 235° Southwest 410 472 36,000  Level FlightAware ADS-B
Mon 08:26:42 AM -36.0730 148.1899 235° Southwest 410 472 36,000  Level Aus ATC (RADAR)
Mon 08:27:07 AM -36.0960 148.1500 235° Southwest 412 474 36,000  Level FlightAware ADS-B
Mon 08:27:52 AM -36.1470 148.0590 235° Southwest 414 476 36,000  Level FlightAware ADS-B
Mon 08:28:07 AM -36.1655 148.0230 235° Southwest 414 476 36,000  Level Aus ATC (RADAR)
Mon 08:28:37 AM -36.1950 147.9720 235° Southwest 414 476 36,000  Level FlightAware ADS-B
Mon 08:28:52 AM -36.2149 147.9346 235° Southwest 414 476 36,000  Level Aus ATC (RADAR)
Mon 08:29:12 AM -36.2340 147.9020 235° Southwest 415 478 36,000  Level FlightAware ADS-B
Mon 08:29:47 AM -36.2748 147.8256 235° Southwest 415 478 36,000 133 Level Aus ATC (RADAR)
Mon 08:29:57 AM -36.2830 147.8140 235° Southwest 413 475 36,100  Climbing FlightAware ADS-B
Mon 08:30:32 AM -36.3239 147.7378 235° Southwest 411 473 36,000 -133 Descending Aus ATC (RADAR)
Mon 08:30:42 AM -36.3310 147.7270 235° Southwest 410 472 36,000  Level FlightAware ADS-B
Mon 08:31:17 AM -36.3724 147.6498 235° Southwest 410 472 36,000  Level Aus ATC (RADAR)
Mon 08:31:22 AM -36.3760 147.6460 235° Southwest 409 471 36,000  Level FlightAware ADS-B
Mon 08:31:57 AM -36.4156 147.5717 235° Southwest 409 471 36,000  Level Aus ATC (RADAR)
Mon 08:32:07 AM -36.4230 147.5590 235° Southwest 409 471 36,000  Level FlightAware ADS-B
Mon 08:32:27 AM -36.4482 147.5130 235° Southwest 411 473 36,000  Level Aus ATC (RADAR)
Mon 08:32:47 AM -36.4670 147.4790 235° Southwest 408 470 36,000  Level FlightAware ADS-B
Mon 08:33:26 AM -36.5120 147.3957 235° Southwest 408 470 36,000  Level Aus ATC (RADAR)
Mon 08:33:27 AM -36.5100 147.4020 235° Southwest 411 473 36,000  Level FlightAware ADS-B
Mon 08:34:11 AM -36.5598 147.3083 235° Southwest 405 466 36,000  Level Aus ATC (RADAR)
Mon 08:34:12 AM -36.5580 147.3140 235° Southwest 410 472 36,000  Level FlightAware ADS-B
Mon 08:34:52 AM -36.6000 147.2360 236° Southwest 412 474 36,000  Level FlightAware ADS-B
Mon 08:35:32 AM -36.6420 147.1590 236° Southwest 411 473 36,000  Level FlightAware ADS-B
Mon 08:36:12 AM -36.6860 147.0790 236° Southwest 407 468 36,000  Level FlightAware ADS-B
Mon 08:36:46 AM -36.7240 147.0060 236° Southwest 404 465 36,000  Level Aus ATC (RADAR)
Mon 08:36:57 AM -36.7330 146.9920 236° Southwest 407 468 36,000  Level FlightAware ADS-B
Mon 08:37:31 AM -36.7714 146.9185 236° Southwest 405 466 36,000  Level Aus ATC (RADAR)
Mon 08:37:37 AM -36.7750 146.9130 236° Southwest 408 470 36,000  Level FlightAware ADS-B
Mon 08:38:21 AM -36.8238 146.8211 236° Southwest 405 466 36,000  Level Aus ATC (RADAR)
Mon 08:38:22 AM -36.8220 146.8270 236° Southwest 409 471 36,000  Level FlightAware ADS-B
Mon 08:39:07 AM -36.8690 146.7390 236° Southwest 411 473 36,000  Level FlightAware ADS-B
Mon 08:39:47 AM -36.9130 146.6580 236° Southwest 413 475 36,000 -94 Level FlightAware ADS-B
Mon 08:40:11 AM -36.9399 146.6045 236° Southwest 408 470 35,900  Descending Aus ATC (RADAR)
Mon 08:40:27 AM -36.9540 146.5810 236° Southwest 411 473 36,000  Climbing FlightAware ADS-B
Mon 08:40:46 AM -36.9769 146.5354 236° Southwest 408 470 35,900 133 Descending Aus ATC (RADAR)
Mon 08:41:12 AM -37.0020 146.4910 236° Southwest 409 471 36,100  Climbing FlightAware ADS-B
Mon 08:41:51 AM -37.0450 146.4082 236° Southwest 405 466 35,900 -150 Descending Aus ATC (RADAR)
Mon 08:41:52 AM -37.0440 146.4120 236° Southwest 406 467 36,000  Climbing FlightAware ADS-B
Mon 08:42:11 AM -37.0650 146.3687 236° Southwest 402 463 35,900  Descending Aus ATC (RADAR)
Mon 08:42:32 AM -37.0850 146.3330 236° Southwest 405 466 36,000 91 Climbing FlightAware ADS-B
Mon 08:43:17 AM -37.1310 146.2480 236° Southwest 398 458 36,000 -95 Level FlightAware ADS-B
Mon 08:43:35 AM -37.1533 146.2036 236° Southwest 400 460 35,900  Descending Aus ATC (RADAR)
Mon 08:43:57 AM -37.1720 146.1700 236° Southwest 398 458 36,000 90 Climbing FlightAware ADS-B
Mon 08:44:42 AM -37.2180 146.0820 237° Southwest 397 457 36,000 -164 Level FlightAware ADS-B
Mon 08:45:10 AM -37.2507 146.0191 237° Southwest 401 461 35,800 -600 Descending Aus ATC (RADAR)
Mon 08:45:22 AM -37.2600 146.0030 237° Southwest 397 457 35,600 -2,000 Descending FlightAware ADS-B
Mon 08:45:40 AM -37.2810 145.9612 237° Southwest 399 459 34,800 -2,400 Descending Aus ATC (RADAR)
Mon 08:46:02 AM -37.3000 145.9260 237° Southwest 395 455 34,000 -3,600 Descending FlightAware ADS-B
Mon 08:46:25 AM -37.3269 145.8739 237° Southwest 405 466 32,100 -3,714 Descending Aus ATC (RADAR)
Mon 08:47:05 AM -37.3690 145.7933 237° Southwest 416 479 30,100 -3,097 Descending Aus ATC (RADAR)
Mon 08:47:27 AM -37.3850 145.7640 237° Southwest 419 482 28,900 -3,391 Descending FlightAware ADS-B
Mon 08:48:37 AM -37.4550 145.6140 240° Southwest 413 475 24,900 -3,750 Descending FlightAware ADS-B
Mon 08:48:55 AM -37.4729 145.5580 240° Southwest 420 483 23,400 -3,500 Descending Aus ATC (RADAR)
Mon 08:49:25 AM -37.4899 145.4906 252° West 408 470 22,100 -2,170 Descending Aus ATC (RADAR)
Mon 08:49:42 AM -37.4960 145.4690 252° West 398 458 21,700 -2,945 Descending FlightAware ADS-B
Mon 08:50:20 AM -37.5217 145.3711 252° West 393 452 19,400 -2,700 Descending Aus ATC (RADAR)
Mon 08:50:42 AM -37.5300 145.3390 252° West 379 436 19,000 -2,457 Descending FlightAware ADS-B
Mon 08:52:05 AM -37.5872 145.1569 252° West 367 422 15,100 -2,463 Descending Aus ATC (RADAR)
Mon 08:52:17 AM -37.5950 145.1500 252° West 372 428 15,100 -1,556 Level FlightAware ADS-B
Mon 08:52:59 AM -37.6606 145.0814 252° West 371 427 13,700 -1,457 Descending Aus ATC (RADAR)
Mon 08:53:27 AM -37.6880 145.0530 252° West 362 417 13,400 -1,418 Descending FlightAware ADS-B
Mon 08:53:54 AM -37.7324 145.0057 252° West 369 425 12,400 -1,789 Descending Aus ATC (RADAR)
Mon 08:54:24 AM -37.7714 144.9650 220° Southwest 366 421 11,700 -1,125 Descending Aus ATC (RADAR)
Mon 08:54:42 AM -37.7850 144.9510 220° Southwest 360 414 11,500 -1,680 Descending FlightAware ADS-B
Mon 08:55:14 AM -37.8346 144.8986 220° Southwest 353 406 10,300 -1,650 Descending Aus ATC (RADAR)
Mon 08:55:22 AM -37.8340 144.9000 220° Southwest 352 405 10,400 -2,211 Climbing FlightAware ADS-B
Mon 08:55:52 AM -37.8770 144.8550 220° Southwest 340 391 8,900 -2,900 Descending FlightAware ADS-B
Mon 08:56:22 AM -37.9120 144.8170 221° Southwest 338 389 7,500 -2,291 Descending FlightAware ADS-B
Mon 08:56:47 AM -37.9400 144.7870 220° Southwest 325 374 6,800 -1,500 Descending FlightAware ADS-B
Mon 08:57:14 AM -37.9763 144.7489 220° Southwest 319 367 6,200 -800 Descending Aus ATC (RADAR)
Mon 08:57:17 AM -37.9740 144.7510 220° Southwest 301 346 6,400 -429 Climbing FlightAware ADS-B
Mon 08:57:42 AM -38.0010 144.7230 219° Southwest 282 325 6,000 -1,000 Descending FlightAware ADS-B
Mon 08:57:59 AM -38.0213 144.7013 219° Southwest 282 325 5,700 -600 Descending Aus ATC (RADAR)
Mon 08:58:12 AM -38.0270 144.6960 219° Southwest 262 302 5,700 -558 Level FlightAware ADS-B
Mon 08:58:42 AM -38.0570 144.6640 220° Southwest 247 284 5,300 -545 Descending FlightAware ADS-B
Mon 08:59:07 AM -38.0780 144.6420 220° Southwest 227 261 5,200 -286 Descending FlightAware ADS-B
Mon 08:59:24 AM -38.0942 144.6237 220° Southwest 227 261 5,100  Descending Aus ATC (RADAR)
Mon 08:59:37 AM -38.1000 144.6180 220° Southwest 202 232 5,200 -419 Climbing FlightAware ADS-B
Mon 09:00:07 AM -38.1220 144.5940 221° Southwest 203 234 4,800 -982 Descending FlightAware ADS-B
Mon 09:00:32 AM -38.1400 144.5750 220° Southwest 204 235 4,300 -1,277 Descending FlightAware ADS-B
Mon 09:00:54 AM -38.1582 144.5549 220° Southwest 203 234 3,800 -1,000 Descending Aus ATC (RADAR)
Mon 09:01:02 AM -38.1610 144.5530 220° Southwest 201 231 3,800 -727 Level FlightAware ADS-B
Mon 09:01:27 AM -38.1790 144.5330 221° Southwest 198 228 3,400 -900 Descending FlightAware ADS-B
Mon 09:01:42 AM -38.1890 144.5230 218° Southwest 191 220 3,200 -600 Descending FlightAware ADS-B
Mon 09:01:57 AM -38.1940 144.5080 247° West 168 193 3,100 -533 Descending FlightAware ADS-B
Mon 09:02:27 AM -38.1840 144.4830 297° West 154 177 2,800 -600 Descending FlightAware ADS-B
Mon 09:02:37 AM -38.1800 144.4750 302° West 149 171 2,700 -600 Descending FlightAware ADS-B
Mon 09:03:07 AM -38.1680 144.4550 307° West 136 157 2,400 -400 Descending FlightAware ADS-B
Mon 09:03:22 AM -38.1610 144.4480 322° Northwest 135 155 2,400  Level FlightAware ADS-B
Mon 09:03:27 AM -38.1580 144.4470 345° North 141 162 2,400 -240 Level FlightAware ADS-B
Mon 09:03:47 AM -38.1450 144.4500 10° North 138 159 2,300 -840 Descending FlightAware ADS-B
Mon 09:04:17 AM -38.1260 144.4530 North 142 163 1,700 -982 Descending FlightAware ADS-B
Mon 09:04:42 AM -38.1110 144.4550 North 133 153 1,400 -1,043 Descending FlightAware ADS-B
Mon 09:05:03 AM -38.0947 144.4579 North 132 152 900 -800 Descending Aus ATC (RADAR)
Mon 09:05:12 AM -38.0930 144.4580 North 130 150 1,000 -353 Climbing FlightAware ADS-B
Mon 09:05:37 AM -38.0780 144.4610 North 130 150 700 -360 Descending FlightAware ADS-B
Mon 09:06:02 AM -38.0650 144.4630 North 130 150 700  Level FlightAware ADS-B
Mon 09:08:00 AM -38.0394 144.4694 11° North  Level Estimated
Mon 09:09:00 AM -38.0394 144.4694 142° Southeast  Level Estimated
Mon 09:10:00 AM -38.0394 144.4694 142° Southeast  Level Estimated
Mon 09:11:00 AM -38.0394 144.4694 142° Southeast  Level Estimated
Mon 09:12:00 AM -38.0394 144.4694 142° Southeast  Level Estimated
Mon 09:13:00 AM -38.0394 144.4694 142° Southeast  Level Estimated
Mon 09:14:00 AM -38.0394 144.4694 142° Southeast  Level Estimated
Mon 09:15:00 AM -38.0394 144.4694 142° Southeast  Level Estimated
Mon 09:16:00 AM -38.0394 144.4694 142° Southeast  Level Estimated
Mon 09:17:00 AM -38.0394 144.4694 142° Southeast  Level Estimated
Mon 09:18:00 AM -38.0394 144.4694 142° Southeast  Level Estimated
Mon 09:19:00 AM -38.0394 144.4694 142° Southeast  Level Estimated
Mon 09:20:00 AM -38.0394 144.4694 142° Southeast  Level Estimated

Login

Don't have an account? Register now (free) for customized features, flight alerts, and more!